Time;durP1;ratioP1;P1;durP2;ratioP2;P2;SDS_P1;SDS_P2;PMS_P1;PMS_P2;Temp;Humidity;BMP_temperature;BMP_pressure;BME280_temperature;BME280_humidity;BME280_pressure;Samples;Min_cycle;Max_cycle;Signal;HPM_P1;HPM_P2
2023/05/08 00:00:22;;;;;;;5.97;3.25;;;11.70;99.90;;;;;;4884580;29;20101;-94
2023/05/08 00:02:47;;;;;;;5.22;2.78;;;11.60;99.90;;;;;;4883103;29;20049;-95
2023/05/08 00:05:13;;;;;;;4.88;3.15;;;11.60;99.90;;;;;;4873929;29;20028;-93
2023/05/08 00:07:39;;;;;;;4.72;3.00;;;11.60;99.90;;;;;;4872844;29;20096;-94
2023/05/08 00:10:06;;;;;;;6.68;3.03;;;11.50;99.90;;;;;;4891837;29;20033;-95
2023/05/08 00:12:32;;;;;;;8.27;3.50;;;11.50;99.90;;;;;;4866621;29;20063;-94
2023/05/08 00:14:58;;;;;;;9.10;3.13;;;11.50;99.90;;;;;;4882550;29;20383;-95
2023/05/08 00:17:24;;;;;;;12.15;3.03;;;11.50;99.90;;;;;;4859032;29;20108;-93
2023/05/08 00:19:49;;;;;;;8.23;3.92;;;11.50;99.90;;;;;;4866619;29;20045;-94
2023/05/08 00:22:15;;;;;;;6.25;3.22;;;11.50;99.90;;;;;;4866185;29;20040;-95
2023/05/08 00:24:40;;;;;;;7.07;3.70;;;11.50;99.90;;;;;;4883835;29;20036;-96
2023/05/08 00:27:07;;;;;;;5.78;2.97;;;11.50;99.90;;;;;;4868528;29;20021;-94
2023/05/08 00:29:33;;;;;;;8.32;3.10;;;11.50;99.90;;;;;;4881405;29;20061;-94
2023/05/08 00:31:59;;;;;;;6.10;4.30;;;11.50;99.90;;;;;;4872248;29;20120;-95
2023/05/08 00:34:25;;;;;;;5.72;3.10;;;11.50;99.90;;;;;;4882307;29;20123;-94
2023/05/08 00:36:51;;;;;;;5.05;3.08;;;11.50;99.90;;;;;;4882870;29;20068;-95
2023/05/08 00:39:17;;;;;;;7.13;3.42;;;11.50;99.90;;;;;;4882420;29;20139;-95
2023/05/08 00:41:42;;;;;;;5.53;3.20;;;11.40;99.90;;;;;;4882665;29;20025;-95
2023/05/08 00:44:08;;;;;;;9.80;3.67;;;11.40;99.90;;;;;;4883497;29;20128;-95
2023/05/08 00:46:35;;;;;;;9.60;3.65;;;11.40;99.90;;;;;;4865759;29;20029;-94
2023/05/08 00:49:03;;;;;;;6.72;4.35;;;11.30;99.90;;;;;;4881632;29;20041;-94
2023/05/08 00:51:30;;;;;;;9.40;3.42;;;11.30;99.90;;;;;;4865245;29;20021;-93
2023/05/08 00:53:56;;;;;;;7.22;3.50;;;11.30;99.90;;;;;;4865246;29;20037;-93
2023/05/08 00:56:23;;;;;;;6.75;3.40;;;11.20;99.90;;;;;;4881457;29;20030;-94
2023/05/08 00:58:50;;;;;;;5.70;3.40;;;11.20;99.90;;;;;;4881563;29;20033;-94
2023/05/08 01:01:16;;;;;;;9.00;3.30;;;11.20;99.90;;;;;;4864927;29;20119;-95
2023/05/08 01:03:42;;;;;;;9.93;3.33;;;11.10;99.90;;;;;;4880727;29;20037;-94
2023/05/08 01:06:08;;;;;;;7.57;3.30;;;11.10;99.90;;;;;;4879685;29;20093;-93
2023/05/08 01:08:35;;;;;;;8.32;3.75;;;11.10;99.90;;;;;;4863610;29;20463;-94
2023/05/08 01:11:06;;;;;;;6.82;3.65;;;11.10;99.90;;;;;;4864798;29;20420;-93
2023/05/08 01:14:03;;;;;;;9.05;3.72;;;11.00;99.90;;;;;;4880901;29;20057;-96
2023/05/08 01:16:34;;;;;;;6.78;3.95;;;11.00;99.90;;;;;;4805177;29;20030;-94
2023/05/08 01:19:26;;;;;;;7.28;4.05;;;11.00;99.90;;;;;;4804604;29;20084;-94
2023/05/08 01:22:01;;;;;;;9.80;4.50;;;10.90;99.90;;;;;;4804487;29;20035;-94
2023/05/08 01:25:00;;;;;;;8.85;4.15;;;10.90;99.90;;;;;;4804140;29;20038;-93
2023/05/08 01:28:04;;;;;;;6.55;3.90;;;10.90;99.90;;;;;;4790283;29;20422;-92
2023/05/08 01:30:52;;;;;;;6.80;4.15;;;10.80;99.90;;;;;;4805327;29;20581;-94
2023/05/08 01:33:40;;;;;;;5.93;3.45;;;10.80;99.90;;;;;;4804890;29;20059;-93
2023/05/08 01:36:14;;;;;;;8.40;3.83;;;10.70;99.90;;;;;;4809666;29;20050;-93
2023/05/08 01:39:22;;;;;;;6.20;3.50;;;10.70;99.90;;;;;;4792383;29;20051;-94
2023/05/08 01:42:02;;;;;;;9.73;3.03;;;10.70;99.90;;;;;;4804696;29;20050;-93
2023/05/08 01:44:40;;;;;;;7.93;4.43;;;10.70;99.90;;;;;;4789853;29;20586;-94
2023/05/08 01:47:08;;;;;;;6.78;3.65;;;10.70;99.90;;;;;;4790042;29;20057;-92
2023/05/08 01:49:40;;;;;;;5.50;2.97;;;10.70;99.90;;;;;;4805277;29;20636;-90
2023/05/08 01:52:12;;;;;;;7.60;2.80;;;10.70;99.90;;;;;;4789625;29;20097;-91
2023/05/08 01:55:00;;;;;;;5.25;2.60;;;10.70;99.90;;;;;;4886895;29;20069;-91
2023/05/08 01:57:28;;;;;;;6.47;2.70;;;10.70;99.90;;;;;;4866636;29;20503;-92
2023/05/08 01:59:56;;;;;;;5.38;2.75;;;10.80;99.90;;;;;;4875790;29;20043;-92
2023/05/08 02:02:23;;;;;;;6.57;2.45;;;10.80;99.90;;;;;;4863359;29;20033;-94
2023/05/08 02:04:50;;;;;;;6.50;2.55;;;10.80;99.90;;;;;;4863005;29;20120;-93
2023/05/08 02:07:17;;;;;;;7.43;3.08;;;10.80;99.90;;;;;;4863199;29;20029;-92
2023/05/08 02:09:43;;;;;;;8.27;3.47;;;10.80;99.90;;;;;;4863816;29;20033;-95
2023/05/08 02:12:10;;;;;;;7.63;3.30;;;10.80;99.90;;;;;;4865181;29;20041;-94
2023/05/08 02:14:38;;;;;;;7.35;3.22;;;10.80;99.90;;;;;;4880055;29;20495;-94
2023/05/08 02:17:07;;;;;;;5.97;2.88;;;10.70;99.90;;;;;;4864818;29;20152;-95
2023/05/08 02:19:34;;;;;;;4.72;3.20;;;10.70;99.90;;;;;;4863118;29;20111;-94
2023/05/08 02:22:01;;;;;;;6.60;3.40;;;10.60;99.90;;;;;;4863605;29;20037;-94
2023/05/08 02:24:29;;;;;;;7.75;3.10;;;10.60;99.90;;;;;;4863150;29;20044;-95
2023/05/08 02:26:56;;;;;;;5.38;2.92;;;10.50;99.90;;;;;;4863655;29;20028;-93
2023/05/08 02:29:23;;;;;;;4.18;2.42;;;10.50;99.90;;;;;;4895533;29;20048;-87
2023/05/08 02:31:49;;;;;;;8.25;2.65;;;10.40;99.90;;;;;;4885616;29;20029;-93
2023/05/08 02:34:16;;;;;;;8.63;2.70;;;10.40;99.90;;;;;;4879206;29;20036;-95
2023/05/08 02:36:42;;;;;;;5.32;2.65;;;10.40;99.90;;;;;;4883709;29;20088;-92
2023/05/08 02:39:12;;;;;;;3.70;2.15;;;10.40;99.90;;;;;;4886084;29;20056;-95
2023/05/08 02:41:40;;;;;;;4.93;2.50;;;10.50;99.90;;;;;;4870188;29;20128;-93
2023/05/08 02:44:05;;;;;;;5.15;2.03;;;10.50;99.90;;;;;;4864620;29;20651;-94
2023/05/08 02:46:38;;;;;;;7.30;2.33;;;10.50;99.90;;;;;;4879903;29;20116;-95
2023/05/08 02:49:23;;;;;;;6.43;2.50;;;10.50;99.90;;;;;;4863908;29;20074;-95
2023/05/08 02:52:28;;;;;;;5.85;2.20;;;10.60;99.90;;;;;;4883345;29;20030;-92
2023/05/08 02:55:03;;;;;;;5.65;2.05;;;10.60;99.90;;;;;;4878514;29;20041;-92
2023/05/08 02:57:55;;;;;;;5.72;2.33;;;10.60;99.90;;;;;;4878875;29;20041;-92
2023/05/08 03:00:26;;;;;;;3.60;1.85;;;10.70;99.90;;;;;;4862727;29;20029;-93
2023/05/08 03:03:06;;;;;;;3.92;2.10;;;10.70;99.90;;;;;;4862469;29;20028;-92
2023/05/08 03:05:35;;;;;;;5.23;2.10;;;10.70;99.90;;;;;;4878132;29;20108;-91
2023/05/08 03:08:28;;;;;;;5.10;1.80;;;10.70;99.90;;;;;;4878119;29;20127;-93
2023/05/08 03:10:58;;;;;;;6.55;1.98;;;10.70;99.90;;;;;;4853038;29;20448;-90
2023/05/08 03:13:30;;;;;;;4.72;1.75;;;10.70;99.90;;;;;;4863680;29;20021;-93
2023/05/08 03:15:59;;;;;;;3.05;1.60;;;10.70;99.90;;;;;;4866019;29;20495;-93
2023/05/08 03:18:34;;;;;;;6.50;1.90;;;10.70;99.90;;;;;;4872292;29;20078;-94
2023/05/08 03:21:00;;;;;;;4.40;1.67;;;10.70;99.90;;;;;;4862833;29;20029;-93
2023/05/08 03:23:29;;;;;;;4.90;1.63;;;10.70;99.90;;;;;;4878463;29;20103;-93
2023/05/08 03:25:57;;;;;;;6.45;1.90;;;10.80;99.90;;;;;;4879093;29;20057;-93
2023/05/08 03:28:23;;;;;;;5.20;1.70;;;10.80;99.90;;;;;;4861611;29;20037;-94
2023/05/08 03:30:50;;;;;;;3.78;2.00;;;10.80;99.90;;;;;;4878343;29;20025;-94
2023/05/08 03:33:16;;;;;;;6.47;2.05;;;10.80;99.90;;;;;;4878295;29;20033;-94
2023/05/08 03:35:44;;;;;;;5.35;1.80;;;10.80;99.90;;;;;;4862255;29;20088;-94
2023/05/08 03:38:10;;;;;;;4.00;1.70;;;10.70;99.90;;;;;;4864516;29;20124;-91
2023/05/08 03:40:37;;;;;;;6.47;1.77;;;10.70;99.90;;;;;;4873560;29;20053;-92
2023/05/08 03:43:07;;;;;;;2.35;1.35;;;10.70;99.90;;;;;;4888930;29;20025;-93
2023/05/08 03:45:38;;;;;;;3.85;1.55;;;10.70;99.90;;;;;;4883343;29;20031;-95
2023/05/08 03:48:05;;;;;;;4.07;1.60;;;10.80;99.90;;;;;;4866122;29;20079;-91
2023/05/08 03:50:33;;;;;;;3.65;1.55;;;10.80;99.90;;;;;;4865495;29;20085;-94
2023/05/08 03:52:59;;;;;;;2.53;1.50;;;10.80;99.90;;;;;;4864844;29;20025;-94
2023/05/08 03:55:26;;;;;;;2.20;1.40;;;10.80;99.90;;;;;;4883264;29;20044;-94
2023/05/08 03:58:24;;;;;;;4.05;1.35;;;10.80;99.90;;;;;;4865633;29;20033;-92
2023/05/08 04:00:58;;;;;;;4.05;1.35;;;10.80;99.90;;;;;;4861105;29;20571;-94
2023/05/08 04:03:32;;;;;;;6.35;1.50;;;10.80;99.90;;;;;;4873819;29;20029;-95
2023/05/08 04:06:05;;;;;;;2.75;1.27;;;10.80;99.90;;;;;;4881662;29;20065;-94
2023/05/08 04:08:38;;;;;;;8.00;1.67;;;10.80;99.90;;;;;;4881281;29;20052;-95
2023/05/08 04:11:14;;;;;;;7.63;1.65;;;10.90;99.90;;;;;;4882444;29;20025;-94
2023/05/08 04:13:55;;;;;;;4.75;1.30;;;10.90;99.90;;;;;;4882560;29;20040;-93
2023/05/08 04:16:25;;;;;;;3.70;1.50;;;10.90;99.90;;;;;;4885869;29;20029;-94
2023/05/08 04:19:00;;;;;;;5.33;1.50;;;10.90;99.90;;;;;;4866064;29;20559;-94
2023/05/08 04:21:27;;;;;;;5.00;1.73;;;10.90;99.90;;;;;;4881030;29;20029;-95
2023/05/08 04:23:56;;;;;;;5.38;2.10;;;10.90;99.90;;;;;;4880811;29;20121;-94
2023/05/08 04:26:21;;;;;;;3.45;1.50;;;11.00;99.90;;;;;;4881529;29;20024;-96
2023/05/08 04:28:48;;;;;;;3.00;1.55;;;11.00;99.90;;;;;;4883948;29;20052;-95
2023/05/08 04:31:15;;;;;;;6.03;1.85;;;11.00;99.90;;;;;;4897448;29;20029;-93
2023/05/08 04:33:45;;;;;;;4.93;1.65;;;11.00;99.90;;;;;;4866074;29;20444;-94
2023/05/08 04:36:12;;;;;;;3.70;1.40;;;11.10;99.90;;;;;;4881804;29;20021;-93
2023/05/08 04:38:39;;;;;;;5.50;1.55;;;11.10;99.90;;;;;;4864656;29;20029;-94
2023/05/08 04:41:06;;;;;;;4.35;2.08;;;11.10;99.90;;;;;;4865121;29;20396;-91
2023/05/08 04:43:32;;;;;;;4.45;2.00;;;11.10;99.90;;;;;;4864802;29;20055;-93
2023/05/08 04:45:59;;;;;;;4.95;1.80;;;11.10;99.90;;;;;;4864736;29;20033;-95
2023/05/08 04:48:24;;;;;;;4.20;1.48;;;11.10;99.90;;;;;;4864083;29;20060;-91
2023/05/08 04:50:50;;;;;;;3.35;1.50;;;11.10;99.90;;;;;;4864840;29;20809;-94
2023/05/08 04:53:16;;;;;;;6.28;1.70;;;11.20;99.90;;;;;;4881606;29;20041;-94
2023/05/08 04:55:41;;;;;;;4.85;1.60;;;11.20;99.90;;;;;;4864009;29;20025;-92
2023/05/08 04:58:09;;;;;;;5.97;1.80;;;11.20;99.90;;;;;;4881073;29;20353;-94
2023/05/08 05:00:35;;;;;;;3.38;2.47;;;11.20;99.90;;;;;;4864561;29;20032;-95
2023/05/08 05:03:01;;;;;;;5.85;2.20;;;11.20;99.90;;;;;;4880861;29;20383;-94
2023/05/08 05:05:26;;;;;;;6.70;2.85;;;11.20;99.90;;;;;;4863860;29;20036;-93
2023/05/08 05:07:52;;;;;;;7.15;2.45;;;11.20;99.90;;;;;;4863695;29;20543;-93
2023/05/08 05:10:18;;;;;;;6.97;2.20;;;11.20;99.90;;;;;;4864967;29;20041;-95
2023/05/08 05:12:44;;;;;;;5.60;2.70;;;11.20;99.90;;;;;;4880815;29;20499;-88
2023/05/08 05:15:11;;;;;;;3.05;2.10;;;11.20;99.90;;;;;;4863565;29;20037;-95
2023/05/08 05:17:36;;;;;;;6.20;2.33;;;11.20;99.90;;;;;;4864135;29;20503;-92
2023/05/08 05:20:03;;;;;;;5.68;1.90;;;11.20;99.90;;;;;;4880859;29;20102;-92
2023/05/08 05:22:29;;;;;;;4.43;1.90;;;11.20;99.90;;;;;;4881326;29;20021;-88
2023/05/08 05:24:55;;;;;;;6.40;2.25;;;11.10;99.90;;;;;;4871380;29;20037;-91
2023/05/08 05:27:20;;;;;;;6.43;2.33;;;11.20;99.90;;;;;;4887133;29;20036;-92
2023/05/08 05:29:46;;;;;;;4.50;1.88;;;11.20;99.90;;;;;;4868224;29;20044;-93
2023/05/08 05:32:12;;;;;;;8.15;3.08;;;11.20;99.90;;;;;;4884431;29;20033;-93
2023/05/08 05:34:37;;;;;;;6.97;2.50;;;11.20;99.90;;;;;;4884573;29;20033;-91
2023/05/08 05:37:03;;;;;;;5.30;2.58;;;11.30;99.90;;;;;;4866565;29;20044;-93
2023/05/08 05:39:29;;;;;;;8.35;2.50;;;11.30;99.90;;;;;;4890445;29;20057;-92
2023/05/08 05:41:54;;;;;;;4.18;2.28;;;11.30;99.90;;;;;;4887699;29;20035;-94
2023/05/08 05:44:20;;;;;;;6.88;2.60;;;11.40;99.90;;;;;;4885070;29;20029;-93
2023/05/08 05:46:46;;;;;;;9.43;2.63;;;11.50;99.90;;;;;;4881509;29;20035;-94
2023/05/08 05:49:11;;;;;;;7.70;2.55;;;11.50;99.90;;;;;;4863973;29;20440;-92
2023/05/08 05:51:37;;;;;;;8.32;2.40;;;11.60;99.90;;;;;;4866199;29;20033;-91
2023/05/08 05:54:03;;;;;;;9.95;2.60;;;11.60;99.90;;;;;;4867340;29;20057;-94
2023/05/08 05:56:28;;;;;;;11.57;2.60;;;11.60;99.90;;;;;;4884500;29;20511;-94
2023/05/08 05:58:54;;;;;;;8.43;3.10;;;11.70;99.90;;;;;;4884761;29;20495;-93
2023/05/08 06:01:20;;;;;;;8.95;2.50;;;11.70;99.90;;;;;;4882302;29;20029;-93
2023/05/08 06:03:46;;;;;;;11.05;2.90;;;11.70;99.90;;;;;;4882960;29;20033;-95
2023/05/08 06:06:12;;;;;;;8.93;2.65;;;11.80;99.90;;;;;;4865005;29;20029;-93
2023/05/08 06:08:37;;;;;;;5.32;2.75;;;11.80;99.90;;;;;;4866095;29;20049;-95
2023/05/08 06:11:03;;;;;;;8.27;2.30;;;11.80;99.90;;;;;;4882968;29;20384;-96
2023/05/08 06:13:28;;;;;;;8.45;4.35;;;11.80;99.90;;;;;;4863317;29;20044;-95
2023/05/08 06:15:58;;;;;;;9.02;3.10;;;11.80;99.90;;;;;;4862665;29;20475;-93
2023/05/08 06:18:24;;;;;;;7.95;2.92;;;11.80;99.90;;;;;;4876425;29;20053;-93
2023/05/08 06:20:55;;;;;;;9.18;2.50;;;11.80;99.90;;;;;;4879121;29;20045;-95
2023/05/08 06:23:21;;;;;;;7.47;2.47;;;11.80;99.90;;;;;;4862994;29;20550;-94
2023/05/08 06:25:46;;;;;;;7.35;2.30;;;11.80;99.90;;;;;;4881493;29;20111;-95
2023/05/08 06:28:12;;;;;;;7.43;2.60;;;11.90;99.90;;;;;;4862689;29;20029;-92
2023/05/08 06:30:38;;;;;;;5.70;2.08;;;11.90;99.90;;;;;;4881044;29;20036;-94
2023/05/08 06:33:04;;;;;;;6.15;2.50;;;11.90;99.90;;;;;;4869578;29;20103;-95
2023/05/08 06:35:29;;;;;;;5.90;2.55;;;11.90;99.90;;;;;;4874780;29;20033;-93
2023/05/08 06:37:55;;;;;;;6.00;2.53;;;11.90;99.90;;;;;;4884144;29;20021;-94
2023/05/08 06:40:22;;;;;;;6.68;2.90;;;11.90;99.90;;;;;;4865608;29;20757;-94
2023/05/08 06:42:48;;;;;;;8.27;2.78;;;11.80;99.90;;;;;;4867546;29;20432;-93
2023/05/08 06:45:14;;;;;;;11.20;3.20;;;11.90;99.90;;;;;;4880706;29;20183;-95
2023/05/08 06:47:40;;;;;;;6.75;3.10;;;11.80;99.90;;;;;;4879098;29;20450;-94
2023/05/08 06:50:06;;;;;;;7.15;2.85;;;11.80;99.90;;;;;;4878171;29;20033;-95
2023/05/08 06:52:32;;;;;;;5.57;2.95;;;11.80;99.90;;;;;;4861317;29;20104;-95
2023/05/08 06:54:57;;;;;;;9.30;3.00;;;11.80;99.90;;;;;;4878905;29;20184;-92
2023/05/08 06:57:25;;;;;;;7.18;3.53;;;11.90;99.90;;;;;;4878657;29;20060;-93
2023/05/08 06:59:52;;;;;;;4.00;2.33;;;11.90;99.90;;;;;;4878676;29;20037;-94
2023/05/08 07:02:18;;;;;;;8.68;3.28;;;12.00;99.90;;;;;;4861812;29;20039;-92
2023/05/08 07:04:44;;;;;;;4.30;2.63;;;12.00;99.90;;;;;;4878257;29;20582;-93
2023/05/08 07:07:10;;;;;;;6.43;2.75;;;12.00;99.90;;;;;;4862486;29;20025;-93
2023/05/08 07:09:37;;;;;;;3.92;2.25;;;12.10;99.90;;;;;;4869419;29;20132;-93
2023/05/08 07:12:03;;;;;;;8.68;1.83;;;12.10;99.90;;;;;;4877621;29;20048;-93
2023/05/08 07:14:28;;;;;;;5.25;1.90;;;12.00;99.90;;;;;;4866054;29;20495;-90
2023/05/08 07:16:54;;;;;;;6.20;2.10;;;12.00;99.90;;;;;;4862393;29;20120;-93
2023/05/08 07:19:20;;;;;;;6.05;2.42;;;12.00;99.90;;;;;;4880741;29;20068;-93
2023/05/08 07:21:46;;;;;;;6.22;2.03;;;12.00;99.90;;;;;;4864754;29;20021;-93
2023/05/08 07:24:11;;;;;;;5.50;2.20;;;12.00;99.90;;;;;;4881336;29;20025;-91
2023/05/08 07:26:37;;;;;;;5.68;2.03;;;12.00;99.90;;;;;;4865206;29;20478;-92
2023/05/08 07:29:03;;;;;;;5.65;2.20;;;12.10;99.90;;;;;;4881600;29;20044;-94
2023/05/08 07:31:28;;;;;;;6.40;2.15;;;12.10;99.90;;;;;;4880206;29;20036;-90
2023/05/08 07:33:54;;;;;;;5.05;2.08;;;12.10;99.90;;;;;;4883145;29;20069;-92
2023/05/08 07:36:19;;;;;;;6.82;2.55;;;12.20;99.90;;;;;;4881934;29;20068;-95
2023/05/08 07:38:45;;;;;;;4.13;2.20;;;12.20;99.90;;;;;;4864963;29;20037;-93
2023/05/08 07:41:12;;;;;;;7.88;2.30;;;12.20;99.90;;;;;;4865309;29;20089;-94
2023/05/08 07:43:38;;;;;;;7.55;2.63;;;12.30;99.90;;;;;;4864659;29;20025;-90
2023/05/08 07:46:04;;;;;;;4.85;2.30;;;12.30;99.90;;;;;;4864123;29;20029;-93
2023/05/08 07:48:30;;;;;;;5.47;2.38;;;12.30;99.90;;;;;;4863737;29;20044;-92
2023/05/08 07:50:55;;;;;;;7.10;2.90;;;12.40;99.90;;;;;;4879858;29;20490;-92
2023/05/08 07:53:21;;;;;;;7.22;2.80;;;12.40;99.90;;;;;;4849318;29;20037;-94
2023/05/08 07:55:47;;;;;;;7.65;2.80;;;12.40;99.90;;;;;;4864537;29;20099;-94
2023/05/08 07:58:13;;;;;;;8.15;2.75;;;12.40;99.90;;;;;;4865760;29;20025;-92
2023/05/08 08:00:40;;;;;;;9.30;2.97;;;12.40;99.90;;;;;;4863850;29;20033;-94
2023/05/08 08:03:06;;;;;;;7.28;2.58;;;12.40;99.90;;;;;;4863633;29;20017;-92
2023/05/08 08:05:31;;;;;;;6.95;4.45;;;12.40;99.90;;;;;;4864304;29;20033;-93
2023/05/08 08:07:57;;;;;;;8.15;3.47;;;12.40;99.90;;;;;;4864041;29;20037;-92
2023/05/08 08:10:23;;;;;;;7.95;3.03;;;12.40;99.90;;;;;;4864293;29;20033;-91
2023/05/08 08:12:48;;;;;;;9.60;3.60;;;12.40;99.90;;;;;;4869415;29;20029;-94
2023/05/08 08:15:14;;;;;;;4.80;3.15;;;12.40;99.90;;;;;;4864812;29;20029;-93
2023/05/08 08:17:40;;;;;;;8.45;3.78;;;12.30;99.90;;;;;;4864279;29;20495;-93
2023/05/08 08:20:06;;;;;;;5.40;2.88;;;12.30;99.90;;;;;;4865056;29;20555;-94
2023/05/08 08:22:31;;;;;;;9.98;3.63;;;12.30;99.90;;;;;;4882872;29;20063;-95
2023/05/08 08:24:57;;;;;;;7.18;3.63;;;12.30;99.90;;;;;;4870868;29;20096;-94
2023/05/08 08:27:23;;;;;;;7.78;3.60;;;12.30;99.90;;;;;;4876500;29;20036;-94
2023/05/08 08:29:49;;;;;;;6.10;3.38;;;12.40;99.90;;;;;;4871947;29;20045;-94
2023/05/08 08:32:14;;;;;;;9.02;3.97;;;12.40;99.90;;;;;;4883441;29;20040;-92
2023/05/08 08:34:40;;;;;;;5.45;3.33;;;12.40;99.90;;;;;;4870346;29;20040;-93
2023/05/08 08:37:06;;;;;;;8.65;3.90;;;12.40;99.90;;;;;;4882663;29;20073;-95
2023/05/08 08:39:35;;;;;;;7.38;3.10;;;12.50;99.90;;;;;;4893720;29;20072;-93
2023/05/08 08:42:01;;;;;;;8.13;3.15;;;12.50;99.90;;;;;;4874899;29;20029;-95
2023/05/08 08:44:27;;;;;;;7.88;2.85;;;12.50;99.90;;;;;;4886298;29;20037;-95
2023/05/08 08:46:53;;;;;;;7.68;2.92;;;12.40;99.90;;;;;;4874783;29;20057;-88
2023/05/08 08:49:27;;;;;;;6.15;3.00;;;12.40;99.90;;;;;;4863505;29;20041;-93
2023/05/08 08:51:57;;;;;;;4.57;2.50;;;12.40;99.90;;;;;;4880104;29;20096;-93
2023/05/08 08:54:29;;;;;;;4.45;2.60;;;12.40;99.90;;;;;;4894980;29;20040;-90
2023/05/08 08:56:58;;;;;;;6.25;2.75;;;12.40;99.90;;;;;;4887054;29;20045;-89
2023/05/08 08:59:25;;;;;;;10.20;2.92;;;12.50;99.90;;;;;;4889730;29;20084;-87
2023/05/08 09:01:55;;;;;;;9.93;3.33;;;12.50;99.90;;;;;;4902596;29;20025;-93
2023/05/08 09:04:26;;;;;;;9.18;3.47;;;12.50;99.90;;;;;;4884806;29;20033;-93
2023/05/08 09:06:53;;;;;;;10.68;3.10;;;12.50;99.90;;;;;;4884449;29;20033;-94
2023/05/08 09:09:20;;;;;;;7.07;3.45;;;12.50;99.90;;;;;;4883132;29;20052;-91
2023/05/08 09:11:46;;;;;;;5.78;3.20;;;12.50;99.90;;;;;;4883749;29;20029;-92
2023/05/08 09:14:12;;;;;;;6.03;3.03;;;12.50;99.90;;;;;;4898406;29;20016;-93
2023/05/08 09:16:38;;;;;;;7.60;3.20;;;12.50;99.90;;;;;;4897348;29;20013;-93
2023/05/08 09:19:07;;;;;;;8.05;3.28;;;12.60;99.90;;;;;;4882795;29;20041;-91
2023/05/08 09:21:33;;;;;;;6.85;3.33;;;12.70;99.90;;;;;;4900084;29;20037;-93
2023/05/08 09:24:01;;;;;;;5.78;3.38;;;12.80;99.90;;;;;;4883263;29;20029;-93
2023/05/08 09:26:35;;;;;;;5.38;3.25;;;12.80;99.90;;;;;;4880566;29;20086;-93
2023/05/08 09:29:14;;;;;;;7.38;3.97;;;12.80;99.90;;;;;;4882387;29;20045;-96
2023/05/08 09:31:49;;;;;;;7.30;3.80;;;12.90;99.90;;;;;;4878696;29;20415;-94
2023/05/08 09:34:26;;;;;;;5.07;3.10;;;12.90;99.90;;;;;;4878942;29;20033;-93
2023/05/08 09:37:13;;;;;;;4.90;2.85;;;13.00;99.90;;;;;;4879491;29;20035;-90
2023/05/08 09:39:42;;;;;;;3.00;2.15;;;13.00;99.90;;;;;;4894608;29;20053;-92
2023/05/08 09:42:08;;;;;;;4.93;2.55;;;13.00;99.90;;;;;;4876375;29;20029;-92
2023/05/08 09:44:46;;;;;;;4.82;2.53;;;13.00;99.90;;;;;;4888709;29;20043;-91
2023/05/08 09:47:18;;;;;;;4.07;1.98;;;12.90;99.90;;;;;;4894975;29;20021;-93
2023/05/08 09:50:02;;;;;;;2.28;1.77;;;12.90;99.90;;;;;;4874775;29;20041;-93
2023/05/08 09:52:29;;;;;;;4.43;2.25;;;13.00;99.90;;;;;;4878489;29;20043;-95
2023/05/08 09:55:21;;;;;;;5.72;2.55;;;13.00;99.90;;;;;;4872559;29;20025;-91
2023/05/08 09:57:57;;;;;;;6.13;2.50;;;13.00;99.90;;;;;;4859413;29;20040;-91
2023/05/08 10:00:24;;;;;;;4.35;2.30;;;13.00;99.90;;;;;;4871480;29;20036;-94
2023/05/08 10:02:58;;;;;;;4.85;2.35;;;13.00;99.90;;;;;;4881185;29;20028;-93
2023/05/08 10:05:35;;;;;;;3.33;2.05;;;13.00;99.90;;;;;;4894562;29;20132;-93
2023/05/08 10:08:21;;;;;;;3.38;2.20;;;13.00;99.90;;;;;;4888501;29;20014;-95
2023/05/08 10:10:49;;;;;;;3.83;2.20;;;13.00;99.90;;;;;;4881351;29;20113;-92
2023/05/08 10:13:15;;;;;;;3.95;2.50;;;13.00;99.90;;;;;;4868627;29;20040;-95
2023/05/08 10:15:42;;;;;;;6.28;2.65;;;13.00;99.90;;;;;;4867989;29;20033;-95
2023/05/08 10:18:09;;;;;;;4.00;2.70;;;13.00;99.90;;;;;;4884357;29;20024;-95
2023/05/08 10:20:39;;;;;;;4.85;2.72;;;13.00;99.90;;;;;;4887315;29;20303;-93
2023/05/08 10:23:10;;;;;;;3.38;2.03;;;13.10;99.90;;;;;;4873201;29;20029;-94
2023/05/08 10:25:43;;;;;;;4.80;2.22;;;13.10;99.90;;;;;;4890833;29;20057;-89
2023/05/08 10:28:41;;;;;;;2.53;2.08;;;13.10;99.90;;;;;;4879120;29;20085;-94
2023/05/08 10:31:10;;;;;;;2.75;2.15;;;13.20;99.90;;;;;;4879134;29;20140;-89
2023/05/08 10:33:38;;;;;;;3.78;2.50;;;13.20;99.90;;;;;;4899852;29;20053;-92
2023/05/08 10:36:05;;;;;;;5.57;3.10;;;13.20;99.90;;;;;;4882734;29;20033;-88
2023/05/08 10:38:32;;;;;;;5.22;2.42;;;13.30;99.90;;;;;;4882939;29;20032;-91
2023/05/08 10:41:05;;;;;;;2.63;2.25;;;13.40;99.90;;;;;;4897217;29;20044;-91
2023/05/08 10:43:32;;;;;;;3.30;2.13;;;13.50;99.90;;;;;;4880105;29;20029;-94
2023/05/08 10:46:08;;;;;;;3.22;2.10;;;13.60;99.90;;;;;;4891779;29;20084;-93
2023/05/08 10:48:48;;;;;;;3.15;2.15;;;13.60;99.90;;;;;;4875342;29;20096;-94
2023/05/08 10:51:17;;;;;;;2.28;1.90;;;13.60;99.90;;;;;;4895272;29;20045;-95
2023/05/08 10:53:52;;;;;;;3.00;1.85;;;13.70;99.90;;;;;;4901483;29;20041;-93
2023/05/08 10:56:26;;;;;;;3.03;2.28;;;13.70;99.90;;;;;;4898810;29;20029;-93
2023/05/08 10:58:56;;;;;;;3.63;1.90;;;13.80;99.90;;;;;;4888252;29;20089;-95
2023/05/08 11:01:22;;;;;;;2.63;2.00;;;13.80;99.90;;;;;;4872198;29;20029;-95
2023/05/08 11:03:51;;;;;;;3.38;1.88;;;13.80;99.90;;;;;;4888002;29;20456;-92
2023/05/08 11:06:44;;;;;;;4.32;2.40;;;13.80;99.90;;;;;;4868550;29;20021;-95
2023/05/08 11:09:20;;;;;;;2.70;2.00;;;13.80;99.90;;;;;;4865994;29;20546;-93
2023/05/08 11:12:07;;;;;;;3.90;3.13;;;13.80;99.90;;;;;;4867594;29;20034;-92
2023/05/08 11:14:41;;;;;;;4.65;2.30;;;13.80;99.90;;;;;;4865146;29;20025;-94
2023/05/08 11:17:08;;;;;;;2.58;2.20;;;13.80;99.90;;;;;;4882622;29;20033;-92
2023/05/08 11:19:34;;;;;;;5.30;2.25;;;13.70;99.90;;;;;;4866280;29;20033;-93
2023/05/08 11:22:14;;;;;;;3.08;2.40;;;13.70;99.90;;;;;;4883067;29;20025;-92
2023/05/08 11:24:52;;;;;;;3.83;2.35;;;13.80;99.90;;;;;;4882421;29;20376;-93
2023/05/08 11:27:29;;;;;;;2.03;1.83;;;13.80;99.90;;;;;;4880468;29;20113;-95
2023/05/08 11:30:22;;;;;;;2.28;1.77;;;13.80;99.90;;;;;;4863763;29;20037;-93
2023/05/08 11:32:58;;;;;;;2.10;1.90;;;13.80;99.90;;;;;;4865174;29;20399;-94
2023/05/08 11:35:47;;;;;;;2.85;2.00;;;13.80;99.90;;;;;;4866616;29;20063;-93
2023/05/08 11:38:37;;;;;;;3.45;1.95;;;13.80;99.90;;;;;;4865895;29;20017;-95
2023/05/08 11:41:09;;;;;;;2.00;1.80;;;13.90;99.90;;;;;;4875327;29;20049;-92
2023/05/08 11:43:52;;;;;;;2.53;2.33;;;14.00;99.90;;;;;;4879710;29;20032;-94
2023/05/08 11:46:20;;;;;;;3.75;2.22;;;14.10;99.90;;;;;;4863019;29;20394;-95
2023/05/08 11:48:46;;;;;;;2.85;1.67;;;14.30;99.90;;;;;;4865574;29;20036;-93
2023/05/08 11:51:12;;;;;;;3.10;1.70;;;14.30;99.90;;;;;;4880865;29;20025;-93
2023/05/08 11:53:38;;;;;;;3.10;1.92;;;14.30;99.90;;;;;;4864444;29;20081;-92
2023/05/08 11:56:07;;;;;;;2.72;2.22;;;14.30;99.90;;;;;;4864503;29;20021;-93
2023/05/08 11:58:33;;;;;;;2.45;1.90;;;14.40;99.90;;;;;;4849147;29;20109;-94
2023/05/08 12:00:58;;;;;;;3.08;2.55;;;14.30;99.90;;;;;;4881899;29;20029;-93
2023/05/08 12:03:24;;;;;;;3.47;2.50;;;14.30;99.90;;;;;;4882169;29;20032;-95
2023/05/08 12:05:55;;;;;;;4.68;2.20;;;14.20;99.90;;;;;;4865407;29;20033;-93
2023/05/08 12:08:20;;;;;;;;;;;14.20;99.90;;;;;;4879841;29;20043;-93
2023/05/08 12:10:52;;;;;;;2.55;2.00;;;14.10;99.90;;;;;;4881513;29;19998;-93
2023/05/08 12:13:22;;;;;;;2.67;2.10;;;14.10;99.90;;;;;;4883088;29;20089;-94
2023/05/08 12:15:52;;;;;;;2.72;2.17;;;14.10;99.90;;;;;;4868518;29;20039;-91
2023/05/08 12:18:19;;;;;;;3.63;2.67;;;14.10;99.90;;;;;;4872415;29;20053;-93
2023/05/08 12:20:45;;;;;;;3.00;2.75;;;14.00;99.90;;;;;;4897144;29;20033;-94
2023/05/08 12:23:11;;;;;;;3.60;2.90;;;14.00;99.90;;;;;;4894820;29;20073;-92
2023/05/08 12:25:38;;;;;;;2.17;1.98;;;14.00;99.90;;;;;;4897072;29;20021;-92
2023/05/08 12:28:08;;;;;;;4.68;2.35;;;14.00;99.90;;;;;;4883358;29;20032;-93
2023/05/08 12:30:34;;;;;;;2.85;2.55;;;14.00;99.90;;;;;;4883736;29;20052;-93
2023/05/08 12:33:00;;;;;;;4.93;2.80;;;14.00;99.90;;;;;;4899389;29;20025;-95
2023/05/08 12:35:26;;;;;;;2.42;2.22;;;14.10;99.90;;;;;;4886452;29;20092;-92
2023/05/08 12:37:52;;;;;;;4.93;2.40;;;14.20;99.90;;;;;;4886442;29;20024;-95
2023/05/08 12:40:30;;;;;;;3.97;2.63;;;14.20;99.90;;;;;;4897222;29;20056;-95
2023/05/08 12:42:56;;;;;;;2.92;2.70;;;14.20;99.90;;;;;;4900029;29;20061;-95
2023/05/08 12:45:24;;;;;;;3.13;2.72;;;14.20;99.90;;;;;;4901830;29;20022;-94
2023/05/08 12:47:52;;;;;;;6.97;2.60;;;14.20;99.90;;;;;;4885647;29;20057;-92
2023/05/08 12:50:20;;;;;;;3.67;2.72;;;14.20;99.90;;;;;;4886221;29;20021;-95
2023/05/08 12:52:46;;;;;;;3.03;2.60;;;14.20;99.90;;;;;;4886161;29;20029;-93
2023/05/08 12:55:26;;;;;;;3.47;2.88;;;14.20;99.90;;;;;;4885802;29;20044;-95
2023/05/08 12:58:01;;;;;;;4.18;2.60;;;14.20;99.90;;;;;;4884223;29;20057;-95
2023/05/08 13:00:47;;;;;;;3.70;2.30;;;14.20;99.90;;;;;;4878679;29;20043;-93